sensor_id;sensor_type;location;lat;lon;timestamp;temperature;humidity
5802;DHT22;2927;49.366;8.530;2022-10-16T00:01:13;16.20;99.90
5802;DHT22;2927;49.366;8.530;2022-10-16T00:03:40;16.10;99.90
5802;DHT22;2927;49.366;8.530;2022-10-16T00:06:07;16.20;99.90
5802;DHT22;2927;49.366;8.530;2022-10-16T00:08:33;16.20;99.90
5802;DHT22;2927;49.366;8.530;2022-10-16T00:11:04;16.20;99.90
5802;DHT22;2927;49.366;8.530;2022-10-16T00:13:31;16.20;99.90
5802;DHT22;2927;49.366;8.530;2022-10-16T00:15:59;16.10;99.90
5802;DHT22;2927;49.366;8.530;2022-10-16T00:18:25;16.20;99.90
5802;DHT22;2927;49.366;8.530;2022-10-16T00:20:51;16.20;99.90
5802;DHT22;2927;49.366;8.530;2022-10-16T00:23:17;16.20;99.90
5802;DHT22;2927;49.366;8.530;2022-10-16T00:25:42;16.20;99.90
5802;DHT22;2927;49.366;8.530;2022-10-16T00:28:08;16.10;99.90
5802;DHT22;2927;49.366;8.530;2022-10-16T00:30:34;16.20;99.90
5802;DHT22;2927;49.366;8.530;2022-10-16T00:33:02;16.20;99.90
5802;DHT22;2927;49.366;8.530;2022-10-16T00:35:27;16.20;99.90
5802;DHT22;2927;49.366;8.530;2022-10-16T00:37:54;16.20;99.90
5802;DHT22;2927;49.366;8.530;2022-10-16T00:40:19;16.20;99.90
5802;DHT22;2927;49.366;8.530;2022-10-16T00:42:45;16.10;99.90
5802;DHT22;2927;49.366;8.530;2022-10-16T00:45:11;16.20;99.90
5802;DHT22;2927;49.366;8.530;2022-10-16T00:47:40;16.20;99.90
5802;DHT22;2927;49.366;8.530;2022-10-16T00:50:22;16.10;99.90
5802;DHT22;2927;49.366;8.530;2022-10-16T00:52:49;16.10;99.90
5802;DHT22;2927;49.366;8.530;2022-10-16T00:55:16;16.10;99.90
5802;DHT22;2927;49.366;8.530;2022-10-16T00:57:43;16.20;99.90
5802;DHT22;2927;49.366;8.530;2022-10-16T01:00:11;16.20;99.90
5802;DHT22;2927;49.366;8.530;2022-10-16T01:02:37;16.20;99.90
5802;DHT22;2927;49.366;8.530;2022-10-16T01:05:03;16.20;99.90
5802;DHT22;2927;49.366;8.530;2022-10-16T01:07:52;16.20;99.90
5802;DHT22;2927;49.366;8.530;2022-10-16T01:10:33;16.20;99.90
5802;DHT22;2927;49.366;8.530;2022-10-16T01:13:09;16.20;99.90
5802;DHT22;2927;49.366;8.530;2022-10-16T01:21:26;16.20;99.90
5802;DHT22;2927;49.366;8.530;2022-10-16T01:24:17;16.20;99.90
5802;DHT22;2927;49.366;8.530;2022-10-16T01:29:56;16.10;99.90
5802;DHT22;2927;49.366;8.530;2022-10-16T01:35:04;16.20;99.90
5802;DHT22;2927;49.366;8.530;2022-10-16T01:37:35;16.20;99.90
5802;DHT22;2927;49.366;8.530;2022-10-16T01:40:06;16.30;99.90
5802;DHT22;2927;49.366;8.530;2022-10-16T01:42:57;16.20;99.90
5802;DHT22;2927;49.366;8.530;2022-10-16T01:45:24;16.20;99.90
5802;DHT22;2927;49.366;8.530;2022-10-16T01:47:50;16.20;99.90
5802;DHT22;2927;49.366;8.530;2022-10-16T01:50:19;16.30;99.90
5802;DHT22;2927;49.366;8.530;2022-10-16T01:52:49;16.30;99.90
5802;DHT22;2927;49.366;8.530;2022-10-16T01:55:24;16.30;99.90
5802;DHT22;2927;49.366;8.530;2022-10-16T01:57:52;16.20;99.90
5802;DHT22;2927;49.366;8.530;2022-10-16T02:00:20;16.20;99.90
5802;DHT22;2927;49.366;8.530;2022-10-16T02:02:48;16.20;99.90
5802;DHT22;2927;49.366;8.530;2022-10-16T02:05:24;16.30;99.90
5802;DHT22;2927;49.366;8.530;2022-10-16T02:07:51;16.30;99.90
5802;DHT22;2927;49.366;8.530;2022-10-16T02:10:17;16.40;99.90
5802;DHT22;2927;49.366;8.530;2022-10-16T02:12:50;16.40;99.90
5802;DHT22;2927;49.366;8.530;2022-10-16T02:15:20;16.40;99.90
5802;DHT22;2927;49.366;8.530;2022-10-16T02:17:46;16.40;99.90
5802;DHT22;2927;49.366;8.530;2022-10-16T02:20:11;16.40;99.90
5802;DHT22;2927;49.366;8.530;2022-10-16T02:22:42;16.30;99.90
5802;DHT22;2927;49.366;8.530;2022-10-16T02:25:15;16.30;99.90
5802;DHT22;2927;49.366;8.530;2022-10-16T02:28:08;16.30;99.90
5802;DHT22;2927;49.366;8.530;2022-10-16T02:30:47;16.30;99.90
5802;DHT22;2927;49.366;8.530;2022-10-16T02:33:15;16.30;99.90
5802;DHT22;2927;49.366;8.530;2022-10-16T02:35:42;16.30;99.90
5802;DHT22;2927;49.366;8.530;2022-10-16T02:38:09;16.20;99.90
5802;DHT22;2927;49.366;8.530;2022-10-16T02:40:36;16.20;99.90
5802;DHT22;2927;49.366;8.530;2022-10-16T02:43:03;16.20;99.90
5802;DHT22;2927;49.366;8.530;2022-10-16T02:45:30;16.10;99.90
5802;DHT22;2927;49.366;8.530;2022-10-16T02:47:55;16.10;99.90
5802;DHT22;2927;49.366;8.530;2022-10-16T02:50:21;16.00;99.90
5802;DHT22;2927;49.366;8.530;2022-10-16T02:52:47;16.00;99.90
5802;DHT22;2927;49.366;8.530;2022-10-16T02:55:13;15.90;99.90
5802;DHT22;2927;49.366;8.530;2022-10-16T02:57:39;15.80;99.90
5802;DHT22;2927;49.366;8.530;2022-10-16T03:00:10;15.80;99.90
5802;DHT22;2927;49.366;8.530;2022-10-16T03:02:36;15.80;99.90
5802;DHT22;2927;49.366;8.530;2022-10-16T03:05:02;15.70;99.90
5802;DHT22;2927;49.366;8.530;2022-10-16T03:07:28;15.70;99.90
5802;DHT22;2927;49.366;8.530;2022-10-16T03:09:53;15.70;99.90
5802;DHT22;2927;49.366;8.530;2022-10-16T03:12:20;15.70;99.90
5802;DHT22;2927;49.366;8.530;2022-10-16T03:14:46;15.70;99.90
5802;DHT22;2927;49.366;8.530;2022-10-16T03:17:12;15.70;99.90
5802;DHT22;2927;49.366;8.530;2022-10-16T03:19:38;15.80;99.90
5802;DHT22;2927;49.366;8.530;2022-10-16T03:22:04;15.80;99.90
5802;DHT22;2927;49.366;8.530;2022-10-16T03:24:29;15.80;99.90
5802;DHT22;2927;49.366;8.530;2022-10-16T03:26:55;15.80;99.90
5802;DHT22;2927;49.366;8.530;2022-10-16T03:29:20;15.80;99.90
5802;DHT22;2927;49.366;8.530;2022-10-16T03:31:46;15.80;99.90
5802;DHT22;2927;49.366;8.530;2022-10-16T03:34:13;15.90;99.90
5802;DHT22;2927;49.366;8.530;2022-10-16T03:36:39;15.90;99.90
5802;DHT22;2927;49.366;8.530;2022-10-16T03:39:04;15.90;99.90
5802;DHT22;2927;49.366;8.530;2022-10-16T03:41:30;15.90;99.90
5802;DHT22;2927;49.366;8.530;2022-10-16T03:43:55;15.90;99.90
5802;DHT22;2927;49.366;8.530;2022-10-16T03:46:21;15.90;99.90
5802;DHT22;2927;49.366;8.530;2022-10-16T03:48:46;15.80;99.90
5802;DHT22;2927;49.366;8.530;2022-10-16T03:51:12;15.90;99.90
5802;DHT22;2927;49.366;8.530;2022-10-16T03:53:38;15.90;99.90
5802;DHT22;2927;49.366;8.530;2022-10-16T03:56:03;15.90;99.90
5802;DHT22;2927;49.366;8.530;2022-10-16T03:58:29;15.90;99.90
5802;DHT22;2927;49.366;8.530;2022-10-16T04:00:55;15.90;99.90
5802;DHT22;2927;49.366;8.530;2022-10-16T04:03:21;15.90;99.90
5802;DHT22;2927;49.366;8.530;2022-10-16T04:05:46;15.90;99.90
5802;DHT22;2927;49.366;8.530;2022-10-16T04:08:12;15.90;99.90
5802;DHT22;2927;49.366;8.530;2022-10-16T04:10:37;15.90;99.90
5802;DHT22;2927;49.366;8.530;2022-10-16T04:13:03;15.90;99.90
5802;DHT22;2927;49.366;8.530;2022-10-16T04:15:28;15.90;99.90
5802;DHT22;2927;49.366;8.530;2022-10-16T04:17:54;15.90;99.90
5802;DHT22;2927;49.366;8.530;2022-10-16T04:20:20;15.90;99.90
5802;DHT22;2927;49.366;8.530;2022-10-16T04:22:45;15.80;99.90
5802;DHT22;2927;49.366;8.530;2022-10-16T04:25:11;15.80;99.90
5802;DHT22;2927;49.366;8.530;2022-10-16T04:27:37;15.80;99.90
5802;DHT22;2927;49.366;8.530;2022-10-16T04:30:03;15.80;99.90
5802;DHT22;2927;49.366;8.530;2022-10-16T04:32:29;15.80;99.90
5802;DHT22;2927;49.366;8.530;2022-10-16T04:34:55;15.80;99.90
5802;DHT22;2927;49.366;8.530;2022-10-16T04:37:24;15.80;99.90
5802;DHT22;2927;49.366;8.530;2022-10-16T04:39:50;15.80;99.90
5802;DHT22;2927;49.366;8.530;2022-10-16T04:42:16;15.80;99.90
5802;DHT22;2927;49.366;8.530;2022-10-16T04:44:41;15.80;99.90
5802;DHT22;2927;49.366;8.530;2022-10-16T04:47:07;15.80;99.90
5802;DHT22;2927;49.366;8.530;2022-10-16T04:49:33;15.70;99.90
5802;DHT22;2927;49.366;8.530;2022-10-16T04:51:58;15.70;99.90
5802;DHT22;2927;49.366;8.530;2022-10-16T04:54:24;15.70;99.90
5802;DHT22;2927;49.366;8.530;2022-10-16T04:56:50;15.70;99.90
5802;DHT22;2927;49.366;8.530;2022-10-16T04:59:18;15.70;99.90
5802;DHT22;2927;49.366;8.530;2022-10-16T05:01:44;15.60;99.90
5802;DHT22;2927;49.366;8.530;2022-10-16T05:04:10;15.70;99.90
5802;DHT22;2927;49.366;8.530;2022-10-16T05:06:36;15.70;99.90
5802;DHT22;2927;49.366;8.530;2022-10-16T05:09:02;15.70;99.90
5802;DHT22;2927;49.366;8.530;2022-10-16T05:11:28;15.70;99.90
5802;DHT22;2927;49.366;8.530;2022-10-16T05:13:53;15.70;99.90
5802;DHT22;2927;49.366;8.530;2022-10-16T05:16:19;15.60;99.90
5802;DHT22;2927;49.366;8.530;2022-10-16T05:18:44;15.60;99.90
5802;DHT22;2927;49.366;8.530;2022-10-16T05:21:10;15.60;99.90
5802;DHT22;2927;49.366;8.530;2022-10-16T05:23:35;15.70;99.90
5802;DHT22;2927;49.366;8.530;2022-10-16T05:26:01;15.70;99.90
5802;DHT22;2927;49.366;8.530;2022-10-16T05:28:28;15.80;99.90
5802;DHT22;2927;49.366;8.530;2022-10-16T05:30:54;15.80;99.90
5802;DHT22;2927;49.366;8.530;2022-10-16T05:33:20;15.80;99.90
5802;DHT22;2927;49.366;8.530;2022-10-16T05:35:46;15.80;99.90
5802;DHT22;2927;49.366;8.530;2022-10-16T05:38:12;15.80;99.90
5802;DHT22;2927;49.366;8.530;2022-10-16T05:40:37;15.70;99.90
5802;DHT22;2927;49.366;8.530;2022-10-16T05:43:03;15.80;99.90
5802;DHT22;2927;49.366;8.530;2022-10-16T05:45:28;15.70;99.90
5802;DHT22;2927;49.366;8.530;2022-10-16T05:47:54;15.60;99.90
5802;DHT22;2927;49.366;8.530;2022-10-16T05:50:19;15.60;99.90
5802;DHT22;2927;49.366;8.530;2022-10-16T05:52:45;15.60;99.90
5802;DHT22;2927;49.366;8.530;2022-10-16T05:55:10;15.60;99.90
5802;DHT22;2927;49.366;8.530;2022-10-16T05:57:36;15.60;99.90
5802;DHT22;2927;49.366;8.530;2022-10-16T06:00:02;15.70;99.90
5802;DHT22;2927;49.366;8.530;2022-10-16T06:02:28;15.70;99.90
5802;DHT22;2927;49.366;8.530;2022-10-16T06:04:54;15.70;99.90
5802;DHT22;2927;49.366;8.530;2022-10-16T06:07:20;15.70;99.90
5802;DHT22;2927;49.366;8.530;2022-10-16T06:09:51;15.70;99.90
5802;DHT22;2927;49.366;8.530;2022-10-16T06:12:18;15.70;99.90
5802;DHT22;2927;49.366;8.530;2022-10-16T06:14:45;15.70;99.90
5802;DHT22;2927;49.366;8.530;2022-10-16T06:17:12;15.70;99.90
5802;DHT22;2927;49.366;8.530;2022-10-16T06:19:38;15.70;99.90
5802;DHT22;2927;49.366;8.530;2022-10-16T06:22:03;15.70;99.90
5802;DHT22;2927;49.366;8.530;2022-10-16T06:24:29;15.70;99.90
5802;DHT22;2927;49.366;8.530;2022-10-16T06:26:55;15.70;99.90
5802;DHT22;2927;49.366;8.530;2022-10-16T06:29:20;15.70;99.90
5802;DHT22;2927;49.366;8.530;2022-10-16T06:31:46;15.80;99.90
5802;DHT22;2927;49.366;8.530;2022-10-16T06:34:11;15.80;99.90
5802;DHT22;2927;49.366;8.530;2022-10-16T06:36:38;15.80;99.90
5802;DHT22;2927;49.366;8.530;2022-10-16T06:39:04;15.90;99.90
5802;DHT22;2927;49.366;8.530;2022-10-16T06:41:32;15.80;99.90
5802;DHT22;2927;49.366;8.530;2022-10-16T06:43:58;15.90;99.90
5802;DHT22;2927;49.366;8.530;2022-10-16T06:46:25;15.90;99.90
5802;DHT22;2927;49.366;8.530;2022-10-16T06:48:52;15.90;99.90
5802;DHT22;2927;49.366;8.530;2022-10-16T06:51:20;15.90;99.90
5802;DHT22;2927;49.366;8.530;2022-10-16T06:53:51;15.90;99.90
5802;DHT22;2927;49.366;8.530;2022-10-16T06:56:18;15.90;99.90
5802;DHT22;2927;49.366;8.530;2022-10-16T06:58:44;15.90;99.90
5802;DHT22;2927;49.366;8.530;2022-10-16T07:01:11;15.90;99.90
5802;DHT22;2927;49.366;8.530;2022-10-16T07:03:39;16.00;99.90
5802;DHT22;2927;49.366;8.530;2022-10-16T07:06:06;15.90;99.90
5802;DHT22;2927;49.366;8.530;2022-10-16T07:08:33;16.00;99.90
5802;DHT22;2927;49.366;8.530;2022-10-16T07:11:05;16.10;99.90
5802;DHT22;2927;49.366;8.530;2022-10-16T07:13:37;16.20;99.90
5802;DHT22;2927;49.366;8.530;2022-10-16T07:16:11;16.20;99.90
5802;DHT22;2927;49.366;8.530;2022-10-16T07:18:37;16.30;99.90
5802;DHT22;2927;49.366;8.530;2022-10-16T07:21:13;16.40;99.90
5802;DHT22;2927;49.366;8.530;2022-10-16T07:23:39;16.40;99.90
5802;DHT22;2927;49.366;8.530;2022-10-16T07:26:06;16.60;99.90
5802;DHT22;2927;49.366;8.530;2022-10-16T07:28:32;16.70;99.90
5802;DHT22;2927;49.366;8.530;2022-10-16T07:31:02;16.90;99.90
5802;DHT22;2927;49.366;8.530;2022-10-16T07:33:28;16.90;99.90
5802;DHT22;2927;49.366;8.530;2022-10-16T07:35:54;16.90;99.90
5802;DHT22;2927;49.366;8.530;2022-10-16T07:38:21;17.00;99.90
5802;DHT22;2927;49.366;8.530;2022-10-16T07:40:47;17.00;99.90
5802;DHT22;2927;49.366;8.530;2022-10-16T07:43:13;17.10;99.90
5802;DHT22;2927;49.366;8.530;2022-10-16T07:45:49;17.20;99.90
5802;DHT22;2927;49.366;8.530;2022-10-16T07:48:16;17.20;99.90
5802;DHT22;2927;49.366;8.530;2022-10-16T07:50:42;17.20;99.90
5802;DHT22;2927;49.366;8.530;2022-10-16T07:53:08;17.30;99.90
5802;DHT22;2927;49.366;8.530;2022-10-16T07:55:33;17.40;99.90
5802;DHT22;2927;49.366;8.530;2022-10-16T07:57:59;17.40;99.90
5802;DHT22;2927;49.366;8.530;2022-10-16T08:00:24;17.60;99.90
5802;DHT22;2927;49.366;8.530;2022-10-16T08:02:50;17.70;99.90
5802;DHT22;2927;49.366;8.530;2022-10-16T08:05:15;17.80;99.90
5802;DHT22;2927;49.366;8.530;2022-10-16T08:07:41;17.60;99.90
5802;DHT22;2927;49.366;8.530;2022-10-16T08:10:09;17.60;99.90
5802;DHT22;2927;49.366;8.530;2022-10-16T08:12:36;17.40;99.90
5802;DHT22;2927;49.366;8.530;2022-10-16T08:15:02;17.30;99.90
5802;DHT22;2927;49.366;8.530;2022-10-16T08:17:27;17.20;99.90
5802;DHT22;2927;49.366;8.530;2022-10-16T08:19:53;17.20;99.90
5802;DHT22;2927;49.366;8.530;2022-10-16T08:22:18;17.10;99.90
5802;DHT22;2927;49.366;8.530;2022-10-16T08:24:44;17.00;99.90
5802;DHT22;2927;49.366;8.530;2022-10-16T08:27:09;17.10;99.90
5802;DHT22;2927;49.366;8.530;2022-10-16T08:29:35;17.10;99.90
5802;DHT22;2927;49.366;8.530;2022-10-16T08:32:00;17.10;99.90
5802;DHT22;2927;49.366;8.530;2022-10-16T08:34:26;17.10;99.90
5802;DHT22;2927;49.366;8.530;2022-10-16T08:36:54;17.20;99.90
5802;DHT22;2927;49.366;8.530;2022-10-16T08:39:20;17.30;99.90
5802;DHT22;2927;49.366;8.530;2022-10-16T08:47:49;17.80;99.90
5802;DHT22;2927;49.366;8.530;2022-10-16T08:50:29;17.70;99.90
5802;DHT22;2927;49.366;8.530;2022-10-16T08:52:57;17.80;99.90
5802;DHT22;2927;49.366;8.530;2022-10-16T08:57:54;18.20;99.90
5802;DHT22;2927;49.366;8.530;2022-10-16T09:00:20;18.20;99.90
5802;DHT22;2927;49.366;8.530;2022-10-16T09:03:14;18.30;99.90
5802;DHT22;2927;49.366;8.530;2022-10-16T09:08:46;18.50;99.90
5802;DHT22;2927;49.366;8.530;2022-10-16T09:11:26;18.30;99.90
5802;DHT22;2927;49.366;8.530;2022-10-16T09:14:04;18.30;99.90
5802;DHT22;2927;49.366;8.530;2022-10-16T09:16:38;18.80;99.90
5802;DHT22;2927;49.366;8.530;2022-10-16T09:19:18;18.90;99.90
5802;DHT22;2927;49.366;8.530;2022-10-16T09:21:48;18.90;99.90
5802;DHT22;2927;49.366;8.530;2022-10-16T09:24:17;19.20;99.90
5802;DHT22;2927;49.366;8.530;2022-10-16T09:26:43;19.40;99.90
5802;DHT22;2927;49.366;8.530;2022-10-16T09:29:13;19.80;99.90
5802;DHT22;2927;49.366;8.530;2022-10-16T09:31:39;19.50;99.90
5802;DHT22;2927;49.366;8.530;2022-10-16T09:34:05;19.90;99.90
5802;DHT22;2927;49.366;8.530;2022-10-16T09:36:43;19.70;99.90
5802;DHT22;2927;49.366;8.530;2022-10-16T09:39:11;19.40;99.90
5802;DHT22;2927;49.366;8.530;2022-10-16T09:41:41;19.50;99.90
5802;DHT22;2927;49.366;8.530;2022-10-16T09:44:21;19.60;99.90
5802;DHT22;2927;49.366;8.530;2022-10-16T09:46:49;19.60;99.90
5802;DHT22;2927;49.366;8.530;2022-10-16T09:49:23;19.50;99.90
5802;DHT22;2927;49.366;8.530;2022-10-16T09:51:50;19.30;99.90
5802;DHT22;2927;49.366;8.530;2022-10-16T09:54:20;19.50;99.90
5802;DHT22;2927;49.366;8.530;2022-10-16T09:56:46;19.50;99.90
5802;DHT22;2927;49.366;8.530;2022-10-16T09:59:21;19.30;99.90
5802;DHT22;2927;49.366;8.530;2022-10-16T10:01:53;19.30;99.90
5802;DHT22;2927;49.366;8.530;2022-10-16T10:04:22;19.20;99.90
5802;DHT22;2927;49.366;8.530;2022-10-16T10:06:50;19.10;99.90
5802;DHT22;2927;49.366;8.530;2022-10-16T10:09:21;19.10;99.90
5802;DHT22;2927;49.366;8.530;2022-10-16T10:18:20;19.40;99.90
5802;DHT22;2927;49.366;8.530;2022-10-16T10:20:58;19.10;99.90
5802;DHT22;2927;49.366;8.530;2022-10-16T10:23:26;19.10;99.90
5802;DHT22;2927;49.366;8.530;2022-10-16T10:26:18;18.90;99.90
5802;DHT22;2927;49.366;8.530;2022-10-16T10:28:59;19.10;99.90
5802;DHT22;2927;49.366;8.530;2022-10-16T10:31:33;19.10;99.90
5802;DHT22;2927;49.366;8.530;2022-10-16T10:34:16;19.10;99.90
5802;DHT22;2927;49.366;8.530;2022-10-16T10:36:52;19.20;99.90
5802;DHT22;2927;49.366;8.530;2022-10-16T10:39:47;19.30;99.90
5802;DHT22;2927;49.366;8.530;2022-10-16T10:42:24;19.70;99.90
5802;DHT22;2927;49.366;8.530;2022-10-16T10:53:04;20.30;52.20
5802;DHT22;2927;49.366;8.530;2022-10-16T10:58:40;20.20;1.00
5802;DHT22;2927;49.366;8.530;2022-10-16T11:01:26;20.20;54.30
5802;DHT22;2927;49.366;8.530;2022-10-16T11:04:30;20.40;94.90
5802;DHT22;2927;49.366;8.530;2022-10-16T11:07:02;20.60;29.80
5802;DHT22;2927;49.366;8.530;2022-10-16T11:09:36;20.30;43.30
5802;DHT22;2927;49.366;8.530;2022-10-16T11:12:14;20.30;58.80
5802;DHT22;2927;49.366;8.530;2022-10-16T11:17:38;20.40;99.90
5802;DHT22;2927;49.366;8.530;2022-10-16T11:20:05;20.20;99.90
5802;DHT22;2927;49.366;8.530;2022-10-16T11:22:44;20.10;99.90
5802;DHT22;2927;49.366;8.530;2022-10-16T11:25:21;20.10;99.90
5802;DHT22;2927;49.366;8.530;2022-10-16T11:28:09;20.10;99.90
5802;DHT22;2927;49.366;8.530;2022-10-16T11:31:02;20.20;81.80
5802;DHT22;2927;49.366;8.530;2022-10-16T11:33:45;20.30;58.00
5802;DHT22;2927;49.366;8.530;2022-10-16T11:36:29;20.40;53.90
5802;DHT22;2927;49.366;8.530;2022-10-16T11:50:00;20.50;1.00
5802;DHT22;2927;49.366;8.530;2022-10-16T11:52:39;20.40;1.00
5802;DHT22;2927;49.366;8.530;2022-10-16T11:55:18;20.50;3.20
5802;DHT22;2927;49.366;8.530;2022-10-16T11:57:59;20.60;1.00
5802;DHT22;2927;49.366;8.530;2022-10-16T12:00:37;21.00;1.00
5802;DHT22;2927;49.366;8.530;2022-10-16T12:08:28;21.40;1.00
5802;DHT22;2927;49.366;8.530;2022-10-16T12:11:05;21.30;1.00
5802;DHT22;2927;49.366;8.530;2022-10-16T12:18:41;21.50;1.00
5802;DHT22;2927;49.366;8.530;2022-10-16T12:21:07;21.40;1.00
5802;DHT22;2927;49.366;8.530;2022-10-16T12:23:38;21.50;1.00
5802;DHT22;2927;49.366;8.530;2022-10-16T12:26:04;21.40;1.00
5802;DHT22;2927;49.366;8.530;2022-10-16T12:28:31;21.50;1.00
5802;DHT22;2927;49.366;8.530;2022-10-16T12:31:06;21.80;1.00
5802;DHT22;2927;49.366;8.530;2022-10-16T12:33:39;21.80;1.00
5802;DHT22;2927;49.366;8.530;2022-10-16T12:36:26;21.90;1.00
5802;DHT22;2927;49.366;8.530;2022-10-16T12:38:52;21.90;1.00
5802;DHT22;2927;49.366;8.530;2022-10-16T12:41:32;21.80;1.00
5802;DHT22;2927;49.366;8.530;2022-10-16T12:43:59;21.60;1.00
5802;DHT22;2927;49.366;8.530;2022-10-16T12:51:53;21.60;1.00
5802;DHT22;2927;49.366;8.530;2022-10-16T12:54:36;21.60;1.00
5802;DHT22;2927;49.366;8.530;2022-10-16T13:02:44;21.60;1.00
5802;DHT22;2927;49.366;8.530;2022-10-16T13:10:31;21.50;1.00
5802;DHT22;2927;49.366;8.530;2022-10-16T13:16:05;21.40;1.00
5802;DHT22;2927;49.366;8.530;2022-10-16T13:18:53;21.30;1.00
5802;DHT22;2927;49.366;8.530;2022-10-16T13:21:49;21.10;1.00
5802;DHT22;2927;49.366;8.530;2022-10-16T13:29:31;21.10;1.00
5802;DHT22;2927;49.366;8.530;2022-10-16T13:31:58;21.00;1.00
5802;DHT22;2927;49.366;8.530;2022-10-16T13:34:24;20.90;1.00
5802;DHT22;2927;49.366;8.530;2022-10-16T13:36:52;20.80;1.00
5802;DHT22;2927;49.366;8.530;2022-10-16T13:39:29;20.90;1.00
5802;DHT22;2927;49.366;8.530;2022-10-16T13:42:02;20.80;1.00
5802;DHT22;2927;49.366;8.530;2022-10-16T13:44:33;20.70;1.00
5802;DHT22;2927;49.366;8.530;2022-10-16T13:47:01;20.70;1.00
5802;DHT22;2927;49.366;8.530;2022-10-16T13:49:26;20.80;1.00
5802;DHT22;2927;49.366;8.530;2022-10-16T13:51:57;20.70;1.00
5802;DHT22;2927;49.366;8.530;2022-10-16T13:54:24;20.60;1.00
5802;DHT22;2927;49.366;8.530;2022-10-16T13:56:49;20.50;1.00
5802;DHT22;2927;49.366;8.530;2022-10-16T13:59:34;20.50;1.00
5802;DHT22;2927;49.366;8.530;2022-10-16T14:02:04;20.60;1.00
5802;DHT22;2927;49.366;8.530;2022-10-16T14:04:38;20.70;11.30
5802;DHT22;2927;49.366;8.530;2022-10-16T14:07:04;20.80;1.00
5802;DHT22;2927;49.366;8.530;2022-10-16T14:09:30;20.80;29.70
5802;DHT22;2927;49.366;8.530;2022-10-16T14:12:03;20.80;27.80
5802;DHT22;2927;49.366;8.530;2022-10-16T14:14:44;20.80;3.60
5802;DHT22;2927;49.366;8.530;2022-10-16T14:17:31;20.60;41.30
5802;DHT22;2927;49.366;8.530;2022-10-16T14:19:59;20.50;45.90
5802;DHT22;2927;49.366;8.530;2022-10-16T14:22:34;20.40;2.00
5802;DHT22;2927;49.366;8.530;2022-10-16T14:25:01;20.40;26.10
5802;DHT22;2927;49.366;8.530;2022-10-16T14:27:32;20.40;45.30
5802;DHT22;2927;49.366;8.530;2022-10-16T14:30:18;20.50;30.20
5802;DHT22;2927;49.366;8.530;2022-10-16T14:33:02;20.50;1.00
5802;DHT22;2927;49.366;8.530;2022-10-16T14:35:36;20.60;1.00
5802;DHT22;2927;49.366;8.530;2022-10-16T14:38:05;20.60;1.00
5802;DHT22;2927;49.366;8.530;2022-10-16T14:40:33;20.50;12.10
5802;DHT22;2927;49.366;8.530;2022-10-16T14:43:00;20.50;31.90
5802;DHT22;2927;49.366;8.530;2022-10-16T14:45:30;20.50;10.70
5802;DHT22;2927;49.366;8.530;2022-10-16T14:48:05;20.40;13.00
5802;DHT22;2927;49.366;8.530;2022-10-16T14:50:31;20.30;42.00
5802;DHT22;2927;49.366;8.530;2022-10-16T14:52:58;20.40;66.70
5802;DHT22;2927;49.366;8.530;2022-10-16T14:55:24;20.50;20.00
5802;DHT22;2927;49.366;8.530;2022-10-16T14:57:50;20.50;1.00
5802;DHT22;2927;49.366;8.530;2022-10-16T15:00:22;20.60;3.80
5802;DHT22;2927;49.366;8.530;2022-10-16T15:02:49;20.60;1.00
5802;DHT22;2927;49.366;8.530;2022-10-16T15:05:17;20.70;1.00
5802;DHT22;2927;49.366;8.530;2022-10-16T15:07:44;21.00;1.00
5802;DHT22;2927;49.366;8.530;2022-10-16T15:10:10;20.90;1.00
5802;DHT22;2927;49.366;8.530;2022-10-16T15:12:35;21.10;1.00
5802;DHT22;2927;49.366;8.530;2022-10-16T15:15:01;21.10;1.00
5802;DHT22;2927;49.366;8.530;2022-10-16T15:17:26;21.00;1.00
5802;DHT22;2927;49.366;8.530;2022-10-16T15:19:52;20.90;1.00
5802;DHT22;2927;49.366;8.530;2022-10-16T15:22:18;20.80;1.00
5802;DHT22;2927;49.366;8.530;2022-10-16T15:24:43;20.90;1.00
5802;DHT22;2927;49.366;8.530;2022-10-16T15:27:09;20.70;1.00
5802;DHT22;2927;49.366;8.530;2022-10-16T15:29:35;20.60;1.00
5802;DHT22;2927;49.366;8.530;2022-10-16T15:32:00;20.50;1.00
5802;DHT22;2927;49.366;8.530;2022-10-16T15:34:26;20.60;1.00
5802;DHT22;2927;49.366;8.530;2022-10-16T15:36:51;20.60;1.00
5802;DHT22;2927;49.366;8.530;2022-10-16T15:39:20;20.60;1.00
5802;DHT22;2927;49.366;8.530;2022-10-16T15:41:47;20.60;1.00
5802;DHT22;2927;49.366;8.530;2022-10-16T15:44:20;20.60;1.00
5802;DHT22;2927;49.366;8.530;2022-10-16T15:46:48;20.60;1.00
5802;DHT22;2927;49.366;8.530;2022-10-16T15:49:13;20.60;1.00
5802;DHT22;2927;49.366;8.530;2022-10-16T15:51:40;20.70;1.00
5802;DHT22;2927;49.366;8.530;2022-10-16T15:54:06;20.90;1.00
5802;DHT22;2927;49.366;8.530;2022-10-16T15:56:32;21.30;1.00
5802;DHT22;2927;49.366;8.530;2022-10-16T15:58:59;21.50;1.00
5802;DHT22;2927;49.366;8.530;2022-10-16T16:01:26;21.30;1.00
5802;DHT22;2927;49.366;8.530;2022-10-16T16:03:55;21.10;1.00
5802;DHT22;2927;49.366;8.530;2022-10-16T16:06:21;20.90;1.00
5802;DHT22;2927;49.366;8.530;2022-10-16T16:08:49;20.80;1.00
5802;DHT22;2927;49.366;8.530;2022-10-16T16:11:16;20.70;1.00
5802;DHT22;2927;49.366;8.530;2022-10-16T16:13:42;20.50;1.00
5802;DHT22;2927;49.366;8.530;2022-10-16T16:16:14;20.40;12.80
5802;DHT22;2927;49.366;8.530;2022-10-16T16:18:40;20.20;51.00
5802;DHT22;2927;49.366;8.530;2022-10-16T16:21:06;20.00;93.50
5802;DHT22;2927;49.366;8.530;2022-10-16T16:23:32;19.80;99.90
5802;DHT22;2927;49.366;8.530;2022-10-16T16:26:12;19.60;99.90
5802;DHT22;2927;49.366;8.530;2022-10-16T16:28:39;19.50;99.90
5802;DHT22;2927;49.366;8.530;2022-10-16T16:31:05;19.40;99.90
5802;DHT22;2927;49.366;8.530;2022-10-16T16:33:31;19.30;99.90
5802;DHT22;2927;49.366;8.530;2022-10-16T16:35:58;19.30;99.90
5802;DHT22;2927;49.366;8.530;2022-10-16T16:38:25;19.30;99.90
5802;DHT22;2927;49.366;8.530;2022-10-16T16:40:50;19.20;99.90
5802;DHT22;2927;49.366;8.530;2022-10-16T16:43:17;19.10;99.90
5802;DHT22;2927;49.366;8.530;2022-10-16T16:45:43;19.00;99.90
5802;DHT22;2927;49.366;8.530;2022-10-16T16:48:08;18.90;99.90
5802;DHT22;2927;49.366;8.530;2022-10-16T16:50:37;18.80;99.90
5802;DHT22;2927;49.366;8.530;2022-10-16T16:53:03;18.80;99.90
5802;DHT22;2927;49.366;8.530;2022-10-16T16:55:29;18.80;99.90
5802;DHT22;2927;49.366;8.530;2022-10-16T16:57:54;18.70;99.90
5802;DHT22;2927;49.366;8.530;2022-10-16T17:00:20;18.70;99.90
5802;DHT22;2927;49.366;8.530;2022-10-16T17:02:48;18.60;99.90
5802;DHT22;2927;49.366;8.530;2022-10-16T17:05:14;18.50;99.90
5802;DHT22;2927;49.366;8.530;2022-10-16T17:07:40;18.40;99.90
5802;DHT22;2927;49.366;8.530;2022-10-16T17:10:06;18.40;99.90
5802;DHT22;2927;49.366;8.530;2022-10-16T17:12:32;18.20;99.90
5802;DHT22;2927;49.366;8.530;2022-10-16T17:14:58;18.20;99.90
5802;DHT22;2927;49.366;8.530;2022-10-16T17:17:23;18.10;99.90
5802;DHT22;2927;49.366;8.530;2022-10-16T17:19:50;18.00;99.90
5802;DHT22;2927;49.366;8.530;2022-10-16T17:22:15;18.00;99.90
5802;DHT22;2927;49.366;8.530;2022-10-16T17:24:41;17.90;99.90
5802;DHT22;2927;49.366;8.530;2022-10-16T17:27:07;17.90;99.90
5802;DHT22;2927;49.366;8.530;2022-10-16T17:29:33;17.80;99.90
5802;DHT22;2927;49.366;8.530;2022-10-16T17:31:58;17.80;99.90
5802;DHT22;2927;49.366;8.530;2022-10-16T17:34:24;17.80;99.90
5802;DHT22;2927;49.366;8.530;2022-10-16T17:36:50;17.70;99.90
5802;DHT22;2927;49.366;8.530;2022-10-16T17:39:16;17.70;99.90
5802;DHT22;2927;49.366;8.530;2022-10-16T17:41:42;17.70;99.90
5802;DHT22;2927;49.366;8.530;2022-10-16T17:44:09;17.60;99.90
5802;DHT22;2927;49.366;8.530;2022-10-16T17:46:37;17.50;99.90